Time;durP1;ratioP1;P1;durP2;ratioP2;P2;SDS_P1;SDS_P2;PMS_P1;PMS_P2;Temp;Humidity;BMP_temperature;BMP_pressure;BME280_temperature;BME280_humidity;BME280_pressure;Samples;Min_cycle;Max_cycle;Signal;HPM_P1;HPM_P2
2022/02/10 00:21:09;;;;;;;;;;;27.80;98.70;;;;;;5095333;28;19976;-71
2022/02/10 00:34:26;;;;;;;;;;;27.80;98.40;;;;;;5083313;28;19915;-72
2022/02/10 00:36:59;;;;;;;;;;;28.10;98.80;;;;;;5094660;28;19962;-71
2022/02/10 00:42:02;;;;;;;;;;;28.10;99.20;;;;;;5094560;28;19909;-71
2022/02/10 00:44:28;;;;;;;;;;;28.10;99.20;;;;;;5094614;28;19908;-71
2022/02/10 00:46:55;;;;;;;;;;;28.10;98.70;;;;;;5094414;28;19915;-71
2022/02/10 00:49:22;;;;;;;;;;;28.10;98.60;;;;;;5092964;28;19920;-72
2022/02/10 00:51:49;;;;;;;;;;;28.10;98.50;;;;;;5094065;28;19915;-71
2022/02/10 00:54:22;;;;;;;;;;;28.00;98.50;;;;;;5094106;28;19947;-71
2022/02/10 00:56:49;;;;;;;;;;;28.10;98.50;;;;;;5094495;28;19943;-71
2022/02/10 00:59:36;;;;;;;;;;;28.10;98.10;;;;;;5093924;28;19916;-72
2022/02/10 01:12:49;;;;;;;;;;;29.50;96.20;;;;;;5093500;28;19955;-72
2022/02/10 01:31:44;;;;;;;;;;;31.10;94.10;;;;;;5093792;28;19930;-71
2022/02/10 01:34:11;;;;;;;;;;;31.20;94.60;;;;;;5093546;28;19908;-70
2022/02/10 01:36:38;;;;;;;;;;;31.30;94.60;;;;;;5092996;28;19908;-71
2022/02/10 01:39:06;;;;;;;;;;;31.20;93.50;;;;;;5093445;28;19912;-70
2022/02/10 01:58:09;;;;;;;;;;;31.80;93.60;;;;;;5093462;28;19954;-71
2022/02/10 02:03:25;;;;;;;;;;;31.50;93.50;;;;;;5093494;28;19915;-72
2022/02/10 02:06:07;;;;;;;;;;;31.10;93.10;;;;;;5092737;28;20341;-73
2022/02/10 02:08:37;;;;;;;;;;;30.60;94.20;;;;;;5093008;28;19956;-72
2022/02/10 02:11:04;;;;;;;;;;;30.40;94.80;;;;;;5092877;28;20366;-72
2022/02/10 02:13:31;;;;;;;;;;;30.30;95.00;;;;;;5092398;28;19908;-73
2022/02/10 02:15:58;;;;;;;;;;;30.20;95.10;;;;;;5092379;28;20235;-72
2022/02/10 02:18:25;;;;;;;;;;;30.10;94.70;;;;;;5092865;28;20305;-72
2022/02/10 02:20:53;;;;;;;;;;;30.10;95.70;;;;;;5092719;28;19912;-72
2022/02/10 02:23:21;;;;;;;;;;;30.00;95.60;;;;;;5092673;28;19908;-73
2022/02/10 02:25:52;;;;;;;;;;;30.10;96.10;;;;;;5092738;28;19915;-73
2022/02/10 02:28:19;;;;;;;;;;;30.00;95.80;;;;;;5092687;28;19912;-72
2022/02/10 02:30:51;;;;;;;;;;;29.90;95.90;;;;;;5092405;28;20388;-72
2022/02/10 03:05:59;;;;;;;;;;;29.60;95.60;;;;;;5092702;28;19958;-72
2022/02/10 03:08:26;;;;;;;;;;;29.50;95.60;;;;;;5092245;28;19919;-71
2022/02/10 03:11:02;;;;;;;;;;;29.50;96.30;;;;;;5092269;28;20349;-72
2022/02/10 03:13:37;;;;;;;;;;;29.60;95.90;;;;;;5092257;28;19962;-73
2022/02/10 03:19:51;;;;;;;;;;;29.60;96.00;;;;;;5092321;28;19912;-73
2022/02/10 04:10:39;;;;;;;;;;;29.30;96.20;;;;;;5094914;28;19912;-71
2022/02/10 04:15:52;;;;;;;;;;;29.20;97.10;;;;;;5090005;28;19987;-71
2022/02/10 04:18:53;;;;;;;;;;;29.20;97.20;;;;;;5094956;28;20347;-71
2022/02/10 04:21:22;;;;;;;;;;;29.20;97.00;;;;;;5094509;28;19908;-70
2022/02/10 04:56:40;;;;;;;;;;;29.20;95.70;;;;;;5095158;28;19909;-73
2022/02/10 05:34:42;;;;;;;;;;;27.50;99.50;;;;;;5093565;28;20368;-72
2022/02/10 05:37:09;;;;;;;;;;;27.10;99.90;;;;;;5093573;28;19908;-73
2022/02/10 05:39:40;;;;;;;;;;;26.50;99.90;;;;;;5093381;28;19908;-72
2022/02/10 05:45:06;;;;;;;;;;;25.10;99.90;;;;;;5093588;28;19908;-72
2022/02/10 05:47:59;;;;;;;;;;;24.60;99.90;;;;;;5093185;28;19908;-73
2022/02/10 06:48:44;;;;;;;;;;;25.30;99.90;;;;;;5090304;28;19915;-72
2022/02/10 06:53:48;;;;;;;;;;;25.50;99.90;;;;;;5090198;28;20397;-72
2022/02/10 06:56:25;;;;;;;;;;;25.50;99.90;;;;;;5086508;28;19908;-73
2022/02/10 07:04:42;;;;;;;;;;;25.80;99.90;;;;;;5078373;28;19908;-73
2022/02/10 07:48:30;;;;;;;;;;;26.00;99.90;;;;;;5093293;28;20007;-72
2022/02/10 07:56:37;;;;;;;;;;;26.00;99.90;;;;;;5092894;28;20163;-72
2022/02/10 09:55:13;;;;;;;;;;;25.30;99.90;;;;;;5073203;28;19966;-74
2022/02/10 10:00:12;;;;;;;;;;;25.30;99.90;;;;;;5072751;28;19927;-74
2022/02/10 10:02:48;;;;;;;;;;;25.30;99.90;;;;;;5072283;28;19908;-74
2022/02/10 10:05:35;;;;;;;;;;;25.30;99.90;;;;;;5072835;28;19915;-73
2022/02/10 10:08:17;;;;;;;;;;;25.30;99.90;;;;;;5072494;28;19912;-73
2022/02/10 10:21:28;;;;;;;;;;;25.20;99.90;;;;;;5072640;28;20343;-73
2022/02/10 10:54:38;;;;;;;;;;;23.50;99.90;;;;;;5072351;28;19909;-73
2022/02/10 10:57:17;;;;;;;;;;;23.30;99.90;;;;;;5072514;28;19908;-74
2022/02/10 11:39:03;;;;;;;;;;;22.20;99.90;;;;;;5072049;28;19962;-74
2022/02/10 11:41:44;;;;;;;;;;;22.10;99.90;;;;;;5071806;28;19908;-73
2022/02/10 11:44:37;;;;;;;;;;;22.00;99.90;;;;;;5071828;28;19962;-73
2022/02/10 12:33:15;;;;;;;;;;;21.60;99.90;;;;;;5074656;28;19908;-74
2022/02/10 12:42:03;;;;;;;;;;;21.50;99.90;;;;;;5074396;28;19909;-74
2022/02/10 14:17:06;;;;;;;;;;;21.70;99.90;;;;;;5072915;28;19908;-74
2022/02/10 14:27:14;;;;;;;;;;;21.40;99.90;;;;;;5073210;28;19930;-75
2022/02/10 14:29:41;;;;;;;;;;;21.30;99.90;;;;;;5072648;28;20350;-76
2022/02/10 14:32:10;;;;;;;;;;;21.20;99.90;;;;;;5072119;28;20278;-75
2022/02/10 14:34:37;;;;;;;;;;;21.20;99.90;;;;;;5072443;28;19912;-75
2022/02/10 14:37:24;;;;;;;;;;;21.20;99.90;;;;;;5072540;28;19916;-73
2022/02/10 15:29:41;;;;;;;;;;;21.60;99.90;;;;;;5071990;28;19916;-76
2022/02/10 15:32:52;;;;;;;;;;;21.60;99.90;;;;;;5073397;28;20357;-76
2022/02/10 15:51:36;;;;;;;;;;;21.50;99.90;;;;;;5076049;28;19919;-75
2022/02/10 15:54:28;;;;;;;;;;;21.40;99.90;;;;;;5075374;28;20274;-74
2022/02/10 16:10:48;;;;;;;;;;;21.40;99.90;;;;;;5075475;28;19913;-77
2022/02/10 16:10:58;;;;;;;;;;;21.40;99.90;;;;;;5075350;28;19915;-76
2022/02/10 16:14:34;;;;;;;;;;;21.30;99.90;;;;;;5075345;28;19912;-76
2022/02/10 16:16:51;;;;;;;;;;;21.30;99.90;;;;;;5074921;28;19953;-76
2022/02/10 16:19:16;;;;;;;;;;;21.20;99.90;;;;;;5074978;28;19908;-76
2022/02/10 16:21:46;;;;;;;;;;;21.20;99.90;;;;;;5075111;28;19955;-75
2022/02/10 16:24:17;;;;;;;;;;;21.20;99.90;;;;;;5075083;28;19908;-76
2022/02/10 16:26:58;;;;;;;;;;;21.20;99.90;;;;;;5074961;28;19969;-75
2022/02/10 16:29:26;;;;;;;;;;;21.20;99.90;;;;;;5074717;28;19921;-76
2022/02/10 16:31:53;;;;;;;;;;;21.20;99.90;;;;;;5074700;28;19912;-76
2022/02/10 16:34:20;;;;;;;;;;;21.20;99.90;;;;;;5074697;28;20300;-76
2022/02/10 16:36:47;;;;;;;;;;;21.20;99.90;;;;;;5074582;28;20100;-76
2022/02/10 16:39:15;;;;;;;;;;;21.10;99.90;;;;;;5074800;28;19909;-76
2022/02/10 16:41:42;;;;;;;;;;;21.10;99.90;;;;;;5074616;28;20359;-75
2022/02/10 16:44:09;;;;;;;;;;;21.00;99.90;;;;;;5074577;28;19944;-76
2022/02/10 16:46:35;;;;;;;;;;;21.00;99.90;;;;;;5074573;28;20003;-76
2022/02/10 16:49:02;;;;;;;;;;;21.00;99.90;;;;;;5074442;28;20294;-75
2022/02/10 16:51:30;;;;;;;;;;;20.90;99.90;;;;;;5074477;28;20011;-75
2022/02/10 16:54:07;;;;;;;;;;;20.90;99.90;;;;;;5074176;28;19908;-75
2022/02/10 16:56:40;;;;;;;;;;;20.90;99.90;;;;;;5074473;28;19935;-77
2022/02/10 16:59:29;;;;;;;;;;;20.80;99.90;;;;;;5073935;28;19921;-77
2022/02/10 17:04:57;;;;;;;;;;;20.80;99.90;;;;;;5074238;28;19908;-75
2022/02/10 17:29:29;;;;;;;;;;;20.30;99.90;;;;;;5073778;28;19921;-75
2022/02/10 17:32:13;;;;;;;;;;;20.30;99.90;;;;;;5073513;28;19908;-76
2022/02/10 17:37:28;;;;;;;;;;;20.30;99.90;;;;;;5073431;28;19975;-76
2022/02/10 17:45:50;;;;;;;;;;;20.30;99.90;;;;;;5073685;28;19915;-76
2022/02/10 17:53:46;;;;;;;;;;;20.50;99.90;;;;;;5072770;28;19915;-75
2022/02/10 17:56:13;;;;;;;;;;;20.50;99.90;;;;;;5073258;28;19916;-75
2022/02/10 17:58:40;;;;;;;;;;;20.50;99.90;;;;;;5073152;28;20003;-75
2022/02/10 18:01:08;;;;;;;;;;;20.60;99.90;;;;;;5073225;28;19924;-75
2022/02/10 18:03:34;;;;;;;;;;;20.60;99.90;;;;;;5073205;28;19909;-74
2022/02/10 18:08:44;;;;;;;;;;;20.70;99.90;;;;;;5073005;28;20367;-74
2022/02/10 18:16:29;;;;;;;;;;;20.70;99.90;;;;;;5073062;28;20363;-74
2022/02/10 18:19:09;;;;;;;;;;;20.70;99.90;;;;;;5073055;28;20003;-74
2022/02/10 19:07:18;;;;;;;;;;;20.60;99.90;;;;;;5074326;28;19909;-75
2022/02/10 19:09:47;;;;;;;;;;;20.60;99.90;;;;;;5076218;28;19927;-76
2022/02/10 19:12:19;;;;;;;;;;;20.60;99.90;;;;;;5076356;28;19915;-74
2022/02/10 19:14:53;;;;;;;;;;;20.60;99.90;;;;;;5076108;28;19999;-74
2022/02/10 19:17:21;;;;;;;;;;;20.50;99.90;;;;;;5076250;28;19956;-74
2022/02/10 19:19:48;;;;;;;;;;;20.50;99.90;;;;;;5076110;28;19954;-73
2022/02/10 19:22:15;;;;;;;;;;;20.60;99.90;;;;;;5076163;28;20371;-75
2022/02/10 19:24:41;;;;;;;;;;;20.60;99.90;;;;;;5076095;28;20355;-74
2022/02/10 19:27:08;;;;;;;;;;;20.50;99.90;;;;;;5076132;28;19962;-74
2022/02/10 19:29:35;;;;;;;;;;;20.50;99.90;;;;;;5075752;28;19917;-74
2022/02/10 19:32:02;;;;;;;;;;;20.60;99.90;;;;;;5075839;28;19913;-75
2022/02/10 19:34:33;;;;;;;;;;;20.50;99.90;;;;;;5075998;28;19909;-75
2022/02/10 19:37:00;;;;;;;;;;;20.50;99.90;;;;;;5075945;28;19951;-75
2022/02/10 19:39:27;;;;;;;;;;;20.50;99.90;;;;;;5076172;28;19962;-75
2022/02/10 19:41:55;;;;;;;;;;;20.50;99.90;;;;;;5075603;28;19916;-75
2022/02/10 19:44:21;;;;;;;;;;;20.60;99.90;;;;;;5075519;28;19915;-76
2022/02/10 19:46:48;;;;;;;;;;;20.60;99.90;;;;;;5075659;28;19908;-75
2022/02/10 19:49:25;;;;;;;;;;;20.60;99.90;;;;;;5075533;28;19922;-74
2022/02/10 19:51:52;;;;;;;;;;;20.60;99.90;;;;;;5108008;28;20372;-75
2022/02/10 19:54:25;;;;;;;;;;;20.60;99.90;;;;;;5075705;28;19913;-75
2022/02/10 19:56:56;;;;;;;;;;;20.60;99.90;;;;;;5075791;28;20003;-75
2022/02/10 19:59:29;;;;;;;;;;;20.60;99.90;;;;;;5074873;28;19927;-76
2022/02/10 20:01:56;;;;;;;;;;;20.70;99.90;;;;;;5074199;28;19995;-75
2022/02/10 20:04:24;;;;;;;;;;;20.70;99.90;;;;;;5074278;28;19916;-73
2022/02/10 20:06:51;;;;;;;;;;;20.70;99.90;;;;;;5074390;28;20290;-75
2022/02/10 20:09:18;;;;;;;;;;;20.70;99.90;;;;;;5074463;28;19923;-74
2022/02/10 20:11:50;;;;;;;;;;;20.70;99.90;;;;;;5074334;28;19916;-74
2022/02/10 20:14:19;;;;;;;;;;;20.70;99.90;;;;;;5081165;28;19919;-74
2022/02/10 20:16:45;;;;;;;;;;;20.80;99.90;;;;;;5075550;28;20267;-73
2022/02/10 20:19:12;;;;;;;;;;;20.80;99.90;;;;;;5074299;28;19958;-73
2022/02/10 20:21:39;;;;;;;;;;;20.80;99.90;;;;;;5074460;28;20275;-74
2022/02/10 20:24:05;;;;;;;;;;;20.90;99.90;;;;;;5074277;28;19909;-73
2022/02/10 20:26:32;;;;;;;;;;;20.90;99.90;;;;;;5076037;28;20257;-74
2022/02/10 20:28:59;;;;;;;;;;;21.00;99.90;;;;;;5077999;28;19923;-75
2022/02/10 20:31:28;;;;;;;;;;;21.00;99.90;;;;;;5075886;28;19916;-74
2022/02/10 20:33:54;;;;;;;;;;;21.00;99.90;;;;;;5075830;28;19908;-74
2022/02/10 20:36:21;;;;;;;;;;;21.10;99.90;;;;;;5074236;28;20414;-73
2022/02/10 20:38:51;;;;;;;;;;;21.10;99.90;;;;;;5074022;28;19908;-73
2022/02/10 20:41:19;;;;;;;;;;;21.20;99.90;;;;;;5074058;28;19913;-74
2022/02/10 20:43:48;;;;;;;;;;;21.20;99.90;;;;;;5073636;28;19915;-73
2022/02/10 20:46:17;;;;;;;;;;;21.30;99.90;;;;;;5073668;28;19909;-73
2022/02/10 20:48:45;;;;;;;;;;;21.30;99.90;;;;;;5106294;28;20390;-73
2022/02/10 20:51:13;;;;;;;;;;;21.40;99.90;;;;;;5073681;28;19909;-73
2022/02/10 20:53:44;;;;;;;;;;;21.40;99.90;;;;;;5073233;28;19991;-74
2022/02/10 20:56:11;;;;;;;;;;;21.50;99.90;;;;;;5073332;28;19912;-74
2022/02/10 20:58:39;;;;;;;;;;;21.50;99.90;;;;;;4950128;28;3519744;-74
2022/02/10 21:01:09;;;;;;;;;;;21.60;99.90;;;;;;5075048;28;19920;-73
2022/02/10 21:03:37;;;;;;;;;;;21.70;99.90;;;;;;5074260;28;19913;-74
2022/02/10 21:11:15;;;;;;;;;;;21.80;99.90;;;;;;5074175;28;20348;-74
2022/02/10 21:13:41;;;;;;;;;;;21.90;99.90;;;;;;5073917;28;19909;-73
2022/02/10 21:16:08;;;;;;;;;;;21.90;99.90;;;;;;5074101;28;19912;-73
2022/02/10 21:18:35;;;;;;;;;;;22.00;99.90;;;;;;5073932;28;19912;-73
2022/02/10 21:21:08;;;;;;;;;;;22.10;99.90;;;;;;5073994;28;19935;-73
2022/02/10 21:23:42;;;;;;;;;;;22.20;99.90;;;;;;5074104;28;20351;-74
2022/02/10 21:26:10;;;;;;;;;;;22.30;99.90;;;;;;5073910;28;19955;-74
2022/02/10 21:28:40;;;;;;;;;;;22.20;99.90;;;;;;5073148;28;19921;-73
2022/02/10 21:31:08;;;;;;;;;;;22.20;99.90;;;;;;5073341;28;19995;-73
2022/02/10 21:36:46;;;;;;;;;;;22.20;99.90;;;;;;5074095;28;19908;-73
2022/02/10 21:47:37;;;;;;;;;;;22.40;99.90;;;;;;5073972;28;20401;-75
2022/02/10 22:03:45;;;;;;;;;;;22.30;99.90;;;;;;5074191;28;20042;-75
2022/02/10 22:11:26;;;;;;;;;;;22.30;99.90;;;;;;5073204;28;19908;-75
2022/02/10 22:21:59;;;;;;;;;;;22.70;99.90;;;;;;5071591;28;20007;-74
2022/02/10 22:24:26;;;;;;;;;;;22.90;99.90;;;;;;5072590;28;20011;-74
2022/02/10 22:26:54;;;;;;;;;;;22.90;99.90;;;;;;5072502;28;19909;-74
2022/02/10 22:29:30;;;;;;;;;;;22.90;99.90;;;;;;5072507;28;20377;-74
2022/02/10 22:34:42;;;;;;;;;;;22.40;99.90;;;;;;5072784;28;19915;-74
2022/02/10 22:37:11;;;;;;;;;;;22.40;99.90;;;;;;5072713;28;19999;-76
2022/02/10 22:39:42;;;;;;;;;;;22.40;99.90;;;;;;5072429;28;20426;-74
2022/02/10 22:42:09;;;;;;;;;;;22.20;99.90;;;;;;5072034;28;19909;-75
2022/02/10 22:44:36;;;;;;;;;;;22.20;99.90;;;;;;5072430;28;19962;-74
2022/02/10 22:47:04;;;;;;;;;;;22.00;99.90;;;;;;5105197;28;20324;-75
2022/02/10 22:49:31;;;;;;;;;;;21.90;99.90;;;;;;5072467;28;19916;-75
2022/02/10 22:51:58;;;;;;;;;;;22.00;99.90;;;;;;5072264;28;20359;-75
2022/02/10 22:54:25;;;;;;;;;;;21.90;99.90;;;;;;5072547;28;20386;-75
2022/02/10 22:56:52;;;;;;;;;;;21.90;99.90;;;;;;5072476;28;19973;-75
2022/02/10 22:59:19;;;;;;;;;;;21.80;99.90;;;;;;5071764;28;19921;-76
2022/02/10 23:01:46;;;;;;;;;;;21.60;99.90;;;;;;5072423;28;19991;-74
2022/02/10 23:04:12;;;;;;;;;;;21.60;99.90;;;;;;5072380;28;19912;-74
2022/02/10 23:06:39;;;;;;;;;;;21.60;99.90;;;;;;5072033;28;19923;-75
2022/02/10 23:11:53;;;;;;;;;;;21.40;99.90;;;;;;5072473;28;20094;-74
2022/02/10 23:14:20;;;;;;;;;;;21.50;99.90;;;;;;5072162;28;19912;-74
2022/02/10 23:16:47;;;;;;;;;;;21.50;99.90;;;;;;5072465;28;19998;-75
2022/02/10 23:19:14;;;;;;;;;;;21.60;99.90;;;;;;5072238;28;20006;-76
2022/02/10 23:21:41;;;;;;;;;;;21.60;99.90;;;;;;5072559;28;19908;-76
2022/02/10 23:24:08;;;;;;;;;;;21.70;99.90;;;;;;5070783;28;20390;-76
2022/02/10 23:26:35;;;;;;;;;;;21.80;99.90;;;;;;5072164;28;19912;-74
2022/02/10 23:29:02;;;;;;;;;;;21.80;99.90;;;;;;5071989;28;19916;-74
2022/02/10 23:31:29;;;;;;;;;;;21.80;99.90;;;;;;5072035;28;20358;-74
2022/02/10 23:33:59;;;;;;;;;;;21.80;99.90;;;;;;5072908;28;19908;-76
2022/02/10 23:36:50;;;;;;;;;;;21.90;99.90;;;;;;5072040;28;20415;-75
2022/02/10 23:39:23;;;;;;;;;;;22.20;99.90;;;;;;5071348;28;20321;-75
2022/02/10 23:42:03;;;;;;;;;;;22.30;99.90;;;;;;5071719;28;19951;-75
2022/02/10 23:44:46;;;;;;;;;;;22.50;99.90;;;;;;5071909;28;20356;-75
2022/02/10 23:47:20;;;;;;;;;;;22.70;99.90;;;;;;5071856;28;19935;-74
2022/02/10 23:49:50;;;;;;;;;;;22.80;99.90;;;;;;5071634;28;19974;-75
2022/02/10 23:52:17;;;;;;;;;;;22.70;99.90;;;;;;5072814;28;19912;-75
2022/02/10 23:54:48;;;;;;;;;;;22.60;99.90;;;;;;5075640;28;19919;-75
2022/02/10 23:57:57;;;;;;;;;;;22.60;99.90;;;;;;5075256;28;19912;-75
